Terminal Aerodrome Forecast
Issued by NWS Pocatello, ID

Home | Current Version | Previous Version | Text Only | Print | Product List | Glossary On
Versions: 1 2 3 4 5 6 7 8 9 10 11 12 13 14 15 16 17 18 19 20 21
926
FTUS45 KPIH 221129
TAFIDA
TAF
KIDA 221129Z 2212/2312 VRB06KT P6SM SCT060 OVC090
     FM221800 24007KT P6SM VCTS BKN040CB BKN090
     FM230300 21007KT P6SM VCSH BKN080=

USA.gov is the U.S. government's official web portal to all federal, state and local government web resources and services.